John_paul K — PBHY — position and weather

sailwx.info

Track history (hours):
 
Tides and Currents Weather Stations Pressure Air Temp Water Temp Dewpoint Dewpoint Depression Visibility Wind Speed Wind Dir Waves Ship Positions

John_paul K

Last reported at 2015-Mar-05 22:31 UTC. Time now 2015-Mar-06 07:33 UTC.
Position N 45°07' W 000°40'.

Length 90 m; draft 5.9 m.

Type: Cargo ship. MMSI: 245181000.

Date/timePositionNaut miles runAvg speedWind from/ knotsBaromVisibWave heightAir tempDewpointWater temp
2015-Mar-05 22:31N 45°07' W 000°40'0 0.0
2015-Mar-05 21:25N 45°07' W 000°40'46 1.0
2015-Mar-03 23:32N 44°42' W 001°34'9 9.7
2015-Mar-03 22:33N 44°33' W 001°36'72 9.6
2015-Mar-03 15:08N 43°23' W 001°55'  
2015-Feb-27 11:32N 43°21' W 001°56'3 2.9
2015-Feb-27 10:32N 43°24' W 001°57'4 0.2
2015-Feb-26 08:12N 43°28' W 001°54'2 0.2
2015-Feb-25 20:25N 43°30' W 001°55'2 1.8
2015-Feb-25 19:24N 43°30' W 001°53'1 1.1
2015-Feb-25 18:34N 43°30' W 001°52'1 1.0
2015-Feb-25 17:33N 43°30' W 001°50'1 1.2
2015-Feb-25 16:31N 43°30' W 001°49'2 2.4
2015-Feb-25 15:33N 43°30' W 001°52'2 1.8
2015-Feb-25 14:17N 43°29' W 001°54'1 1.2
2015-Feb-25 13:30N 43°29' W 001°53'1 0.8
2015-Feb-25 12:21N 43°30' W 001°53'1 0.5
2015-Feb-25 11:20N 43°30' W 001°52'1 1.2
2015-Feb-25 10:33N 43°30' W 001°51'1 1.2
2015-Feb-25 09:33N 43°31' W 001°49'1 0.8
2015-Feb-25 08:33N 43°31' W 001°49'6 0.5
2015-Feb-24 20:30N 43°29' W 001°56'2 1.4
2015-Feb-24 19:05N 43°30' W 001°54'1 1.2
2015-Feb-24 18:32N 43°30' W 001°53'1 1.2
2015-Feb-24 17:29N 43°30' W 001°51'1 1.1
2015-Feb-24 16:32N 43°31' W 001°50'8 5.8
2015-Feb-24 15:14N 43°33' W 001°60'  
Track history (hours):
 
Tides and Currents Weather Stations Pressure Air Temp Water Temp Dewpoint Dewpoint Depression Visibility Wind Speed Wind Dir Waves Ship Positions

John_paul K

Last reported at 2015-Mar-05 22:31 UTC. Time now 2015-Mar-06 07:33 UTC.
Position N 45°07' W 000°40'.

Length 90 m; draft 5.9 m.

Type: Cargo ship. MMSI: 245181000.

Date/timePositionNaut miles runAvg speedWind from/ knotsBaromVisibWave heightAir tempDewpointWater temp
2015-Mar-05 22:31N 45°07' W 000°40'0 0.0
2015-Mar-05 21:25N 45°07' W 000°40'46 1.0
2015-Mar-03 23:32N 44°42' W 001°34'9 9.7
2015-Mar-03 22:33N 44°33' W 001°36'72 9.6
2015-Mar-03 15:08N 43°23' W 001°55'  
2015-Feb-27 11:32N 43°21' W 001°56'3 2.9
2015-Feb-27 10:32N 43°24' W 001°57'4 0.2
2015-Feb-26 08:12N 43°28' W 001°54'2 0.2
2015-Feb-25 20:25N 43°30' W 001°55'2 1.8
2015-Feb-25 19:24N 43°30' W 001°53'1 1.1
2015-Feb-25 18:34N 43°30' W 001°52'1 1.0
2015-Feb-25 17:33N 43°30' W 001°50'1 1.2
2015-Feb-25 16:31N 43°30' W 001°49'2 2.4
2015-Feb-25 15:33N 43°30' W 001°52'2 1.8
2015-Feb-25 14:17N 43°29' W 001°54'1 1.2
2015-Feb-25 13:30N 43°29' W 001°53'1 0.8
2015-Feb-25 12:21N 43°30' W 001°53'1 0.5
2015-Feb-25 11:20N 43°30' W 001°52'1 1.2
2015-Feb-25 10:33N 43°30' W 001°51'1 1.2
2015-Feb-25 09:33N 43°31' W 001°49'1 0.8
2015-Feb-25 08:33N 43°31' W 001°49'6 0.5
2015-Feb-24 20:30N 43°29' W 001°56'2 1.4
2015-Feb-24 19:05N 43°30' W 001°54'1 1.2
2015-Feb-24 18:32N 43°30' W 001°53'1 1.2
2015-Feb-24 17:29N 43°30' W 001°51'1 1.1
2015-Feb-24 16:32N 43°31' W 001°50'8 5.8
2015-Feb-24 15:14N 43°33' W 001°60'  

Dump ship's entire track history